Time;durP1;ratioP1;P1;durP2;ratioP2;P2;SDS_P1;SDS_P2;PMS_P1;PMS_P2;Temp;Humidity;BMP_temperature;BMP_pressure;BME280_temperature;BME280_humidity;BME280_pressure;Samples;Min_cycle;Max_cycle;Signal;HPM_P1;HPM_P2
2021/08/16 00:00:13;0.00;0.00;0.62;0.00;0.00;0.62;6.93;3.77;;;27.00;37.50;;;;;;2253797;61;20428;-54
2021/08/16 00:02:58;0.00;0.00;0.62;0.00;0.00;0.62;5.60;3.53;;;27.00;37.50;;;;;;2253677;61;20647;-54
2021/08/16 00:05:43;0.00;0.00;0.62;0.00;0.00;0.62;5.13;3.33;;;27.00;37.40;;;;;;2253845;61;20413;-57
2021/08/16 00:08:27;0.00;0.00;0.62;0.00;0.00;0.62;5.07;3.97;;;27.00;37.40;;;;;;2253777;61;20572;-55
2021/08/16 00:11:14;0.00;0.00;0.62;0.00;0.00;0.62;6.43;4.07;;;27.00;37.20;;;;;;2253431;61;20395;-56
2021/08/16 00:13:59;0.00;0.00;0.62;0.00;0.00;0.62;5.00;3.73;;;27.00;37.30;;;;;;2253804;61;20387;-55
2021/08/16 00:16:44;0.00;0.00;0.62;0.00;0.00;0.62;5.60;3.30;;;27.00;37.50;;;;;;2253846;61;20617;-50
2021/08/16 00:19:29;0.00;0.00;0.62;0.00;0.00;0.62;5.23;3.70;;;27.00;37.60;;;;;;2253332;61;20396;-54
2021/08/16 00:22:14;0.00;0.00;0.62;0.00;0.00;0.62;4.70;3.73;;;27.00;37.70;;;;;;2252372;61;20427;-56
2021/08/16 00:24:58;0.00;0.00;0.62;0.00;0.00;0.62;5.43;4.10;;;27.00;37.80;;;;;;2253099;61;20415;-53
2021/08/16 00:27:44;0.00;0.00;0.62;0.00;0.00;0.62;4.27;3.80;;;27.00;38.00;;;;;;2253133;61;20368;-53
2021/08/16 00:30:29;0.00;0.00;0.62;0.00;0.00;0.62;6.07;4.10;;;26.90;38.00;;;;;;2253716;61;20497;-55
2021/08/16 00:33:14;0.00;0.00;0.62;0.00;0.00;0.62;6.70;3.13;;;26.90;38.10;;;;;;2253225;61;20399;-51
2021/08/16 00:35:59;0.00;0.00;0.62;0.00;0.00;0.62;5.00;4.00;;;26.90;38.00;;;;;;2253756;61;20764;-52
2021/08/16 00:38:44;0.00;0.00;0.62;0.00;0.00;0.62;5.17;3.97;;;26.90;37.90;;;;;;2253663;61;20364;-52
2021/08/16 00:41:29;0.00;0.00;0.62;0.00;0.00;0.62;4.60;3.73;;;26.90;38.00;;;;;;2253338;61;20379;-53
2021/08/16 00:44:16;0.00;0.00;0.62;0.00;0.00;0.62;4.10;3.67;;;26.90;38.00;;;;;;2253702;61;20400;-56
2021/08/16 00:47:01;0.00;0.00;0.62;0.00;0.00;0.62;5.50;3.57;;;26.90;37.90;;;;;;2253743;61;20402;-53
2021/08/16 00:49:46;0.00;0.00;0.62;0.00;0.00;0.62;4.37;3.80;;;26.90;37.90;;;;;;2253453;61;20367;-51
2021/08/16 00:52:31;0.00;0.00;0.62;0.00;0.00;0.62;4.50;3.90;;;26.90;38.00;;;;;;2253694;61;20435;-55
2021/08/16 00:55:17;0.00;0.00;0.62;0.00;0.00;0.62;4.63;3.73;;;26.90;38.00;;;;;;2253315;61;20374;-53
2021/08/16 00:58:02;0.00;0.00;0.62;0.00;0.00;0.62;5.60;4.50;;;26.90;38.00;;;;;;2253819;61;20356;-51
2021/08/16 01:00:52;0.00;0.00;0.62;0.00;0.00;0.62;5.20;3.67;;;26.90;38.40;;;;;;2253590;61;20360;-54
2021/08/16 01:03:36;0.00;0.00;0.62;0.00;0.00;0.62;6.07;3.87;;;26.90;38.70;;;;;;2253252;61;20696;-52
2021/08/16 01:06:21;0.00;0.00;0.62;0.00;0.00;0.62;6.00;4.00;;;26.80;38.60;;;;;;2253790;61;20355;-52
2021/08/16 01:09:06;0.00;0.00;0.62;0.00;0.00;0.62;4.67;3.43;;;26.80;38.50;;;;;;2253524;61;20396;-53
2021/08/16 01:11:51;0.00;0.00;0.62;0.00;0.00;0.62;6.47;3.57;;;26.80;38.60;;;;;;2253299;61;20395;-55
2021/08/16 01:14:36;0.00;0.00;0.62;0.00;0.00;0.62;5.60;3.70;;;26.70;38.60;;;;;;2253663;61;20782;-51
2021/08/16 01:17:22;0.00;0.00;0.62;0.00;0.00;0.62;4.80;3.60;;;26.70;38.60;;;;;;2253236;61;20411;-53
2021/08/16 01:20:10;0.00;0.00;0.62;0.00;0.00;0.62;6.03;3.27;;;26.70;38.70;;;;;;2253529;61;20375;-51
2021/08/16 01:22:56;0.00;0.00;0.62;0.00;0.00;0.62;4.70;3.70;;;26.70;38.70;;;;;;2253542;61;20407;-54
2021/08/16 01:25:47;0.00;0.00;0.62;0.00;0.00;0.62;5.70;4.00;;;26.70;38.80;;;;;;2253300;61;20608;-53
2021/08/16 01:28:32;0.00;0.00;0.62;0.00;0.00;0.62;6.47;3.73;;;26.70;38.90;;;;;;2253517;61;20431;-50
2021/08/16 01:31:18;0.00;0.00;0.62;0.00;0.00;0.62;5.77;3.67;;;26.60;38.90;;;;;;2253540;61;20356;-51
2021/08/16 01:34:03;0.00;0.00;0.62;0.00;0.00;0.62;8.47;4.63;;;26.60;39.00;;;;;;2253285;61;20434;-53
2021/08/16 01:36:47;0.00;0.00;0.62;0.00;0.00;0.62;5.10;3.77;;;26.60;39.10;;;;;;2253734;61;20391;-53
2021/08/16 01:39:32;0.00;0.00;0.62;0.00;0.00;0.62;6.67;4.17;;;26.50;39.00;;;;;;2253126;61;20356;-50
2021/08/16 01:42:16;0.00;0.00;0.62;0.00;0.00;0.62;5.77;4.03;;;26.50;39.10;;;;;;2253561;61;20375;-51
2021/08/16 01:45:03;0.00;0.00;0.62;0.00;0.00;0.62;5.43;3.33;;;26.50;39.20;;;;;;2253463;61;20387;-55
2021/08/16 01:47:47;0.00;0.00;0.62;0.00;0.00;0.62;5.07;3.63;;;26.50;39.20;;;;;;2253185;61;20363;-53
2021/08/16 01:50:33;0.00;0.00;0.62;0.00;0.00;0.62;4.47;3.17;;;26.50;39.10;;;;;;2253493;61;20367;-55
2021/08/16 01:53:17;0.00;0.00;0.62;0.00;0.00;0.62;4.00;3.33;;;26.50;39.20;;;;;;2253476;61;20435;-49
2021/08/16 01:56:02;0.00;0.00;0.62;0.00;0.00;0.62;3.93;2.83;;;26.50;39.10;;;;;;2253248;61;20411;-52
2021/08/16 01:58:46;0.00;0.00;0.62;0.00;0.00;0.62;7.13;4.00;;;26.50;39.10;;;;;;2253406;61;20395;-54
2021/08/16 02:01:33;0.00;0.00;0.62;0.00;0.00;0.62;5.20;3.47;;;26.50;39.00;;;;;;2253116;61;20452;-51
2021/08/16 02:04:17;0.00;0.00;0.62;0.00;0.00;0.62;4.57;3.80;;;26.50;39.10;;;;;;2253513;61;20355;-53
2021/08/16 02:07:02;0.00;0.00;0.62;0.00;0.00;0.62;6.87;3.43;;;26.50;39.00;;;;;;2253507;61;20367;-54
2021/08/16 02:09:47;0.00;0.00;0.62;0.00;0.00;0.62;4.37;3.30;;;26.50;39.10;;;;;;2253027;61;20428;-53
2021/08/16 02:12:32;0.00;0.00;0.62;0.00;0.00;0.62;4.60;3.53;;;26.50;39.10;;;;;;2253457;61;20435;-52
2021/08/16 02:15:16;0.00;0.00;0.62;0.00;0.00;0.62;6.63;3.97;;;26.50;39.10;;;;;;2253472;61;20355;-54
2021/08/16 02:18:03;0.00;0.00;0.62;0.00;0.00;0.62;6.37;4.10;;;26.50;39.10;;;;;;2253162;61;20356;-49
2021/08/16 02:20:48;0.00;0.00;0.62;0.00;0.00;0.62;4.70;3.23;;;26.50;39.10;;;;;;2253396;61;20376;-54
2021/08/16 02:23:34;0.00;0.00;0.62;0.00;0.00;0.62;6.23;4.20;;;26.50;39.10;;;;;;2253331;61;20372;-55
2021/08/16 02:26:18;0.00;0.00;0.62;0.00;0.00;0.62;4.97;3.70;;;26.50;39.10;;;;;;2253592;61;20607;-56
2021/08/16 02:29:03;0.00;0.00;0.62;0.00;0.00;0.62;4.57;3.30;;;26.50;39.10;;;;;;2253525;61;20379;-51
2021/08/16 02:31:48;0.00;0.00;0.62;0.00;0.00;0.62;4.17;2.93;;;26.50;39.10;;;;;;2253335;61;20792;-53
2021/08/16 02:34:34;0.00;0.00;0.62;0.00;0.00;0.62;5.60;3.80;;;26.50;39.20;;;;;;2253718;61;20574;-54
2021/08/16 02:37:19;0.00;0.00;0.62;0.00;0.00;0.62;5.10;3.40;;;26.50;39.20;;;;;;2253735;61;20388;-52
2021/08/16 02:40:05;0.00;0.00;0.62;0.00;0.00;0.62;6.63;4.30;;;26.50;39.20;;;;;;2253233;61;20727;-51
2021/08/16 02:42:49;0.00;0.00;0.62;0.00;0.00;0.62;5.17;3.70;;;26.40;39.30;;;;;;2253671;61;20651;-50
2021/08/16 02:45:34;0.00;0.00;0.62;0.00;0.00;0.62;5.20;3.77;;;26.40;39.50;;;;;;2253718;61;20392;-54
2021/08/16 02:48:19;0.00;0.00;0.62;0.00;0.00;0.62;5.37;3.77;;;26.40;39.50;;;;;;2253661;61;20400;-54
2021/08/16 02:51:05;0.00;0.00;0.62;0.00;0.00;0.62;5.50;3.63;;;26.30;39.50;;;;;;2253682;61;20395;-56
2021/08/16 02:53:50;0.00;0.00;0.62;0.00;0.00;0.62;6.47;4.40;;;26.30;39.50;;;;;;2253291;61;20387;-57
2021/08/16 02:56:34;0.00;0.00;0.62;0.00;0.00;0.62;7.63;4.80;;;26.30;39.70;;;;;;2253649;61;20364;-55
2021/08/16 02:59:19;0.00;0.00;0.62;0.00;0.00;0.62;5.53;3.27;;;26.20;39.70;;;;;;2254253;61;20591;-54
2021/08/16 03:02:04;0.00;0.00;0.62;0.00;0.00;0.62;4.33;3.40;;;26.20;39.70;;;;;;2253930;61;20424;-52
2021/08/16 03:04:49;0.00;0.00;0.62;0.00;0.00;0.62;6.07;4.00;;;26.20;39.80;;;;;;2254307;61;20773;-55
2021/08/16 03:07:35;0.00;0.00;0.62;0.00;0.00;0.62;8.00;5.30;;;26.10;39.80;;;;;;2254433;61;20360;-54
2021/08/16 03:10:19;0.00;0.00;0.62;0.00;0.00;0.62;4.43;3.70;;;26.00;39.80;;;;;;2253953;61;20729;-55
2021/08/16 03:13:04;0.00;0.00;0.62;0.00;0.00;0.62;6.63;4.30;;;26.00;39.90;;;;;;2254270;61;20396;-54
2021/08/16 03:15:49;0.00;0.00;0.62;0.00;0.00;0.62;7.40;4.80;;;25.90;40.00;;;;;;2253956;61;20620;-55
2021/08/16 03:18:34;0.00;0.00;0.62;0.00;0.00;0.62;6.50;4.50;;;25.80;40.00;;;;;;2254183;61;20367;-54
2021/08/16 03:21:18;0.00;0.00;0.62;0.00;0.00;0.62;7.77;3.83;;;25.80;40.20;;;;;;2254208;61;20376;-57
2021/08/16 03:24:05;0.00;0.00;0.62;0.00;0.00;0.62;5.77;4.40;;;25.70;40.20;;;;;;2253825;61;20394;-52
2021/08/16 03:26:50;0.00;0.00;0.62;0.00;0.00;0.62;6.93;4.60;;;25.60;40.30;;;;;;2254330;61;20776;-54
2021/08/16 03:29:35;0.00;0.00;0.62;0.00;0.00;0.62;11.07;4.30;;;25.60;40.30;;;;;;2254192;61;20364;-52
2021/08/16 03:32:20;0.00;0.00;0.62;0.00;0.00;0.62;5.30;3.80;;;25.50;40.20;;;;;;2253821;61;20401;-56
2021/08/16 03:35:05;0.00;0.00;0.62;0.00;0.00;0.62;6.07;4.17;;;25.50;40.20;;;;;;2254252;61;20396;-51
2021/08/16 03:37:50;0.00;0.00;0.62;0.00;0.00;0.62;5.17;3.83;;;25.50;40.20;;;;;;2253861;61;20363;-54
2021/08/16 03:40:36;0.00;0.00;0.62;0.00;0.00;0.62;5.50;3.50;;;25.40;40.10;;;;;;2253868;61;20360;-53
2021/08/16 03:43:21;0.00;0.00;0.62;0.00;0.00;0.62;7.57;3.60;;;25.40;40.10;;;;;;2254157;61;20383;-54
2021/08/16 03:46:06;0.00;0.00;0.62;0.00;0.00;0.62;4.83;3.07;;;25.40;40.10;;;;;;2253748;61;20431;-55
2021/08/16 03:48:50;0.00;0.00;0.62;0.00;0.00;0.62;4.63;3.47;;;25.30;40.00;;;;;;2254094;61;20375;-55
2021/08/16 03:51:35;0.00;0.00;0.62;0.00;0.00;0.62;5.33;3.03;;;25.30;39.80;;;;;;2254158;61;20384;-54
2021/08/16 03:54:20;0.00;0.00;0.62;0.00;0.00;0.62;4.50;3.33;;;25.20;39.70;;;;;;2253771;61;20475;-55
2021/08/16 03:57:06;0.00;0.00;0.62;0.00;0.00;0.62;4.53;2.90;;;25.20;39.50;;;;;;2253765;61;20368;-55
2021/08/16 03:59:50;0.00;0.00;0.62;0.00;0.00;0.62;3.60;2.67;;;25.20;39.50;;;;;;2253644;61;20607;-54
2021/08/16 04:02:37;0.00;0.00;0.62;0.00;0.00;0.62;5.13;2.80;;;25.10;39.40;;;;;;2254132;61;20384;-54
2021/08/16 04:05:22;0.00;0.00;0.62;0.00;0.00;0.62;4.63;2.97;;;25.10;39.40;;;;;;2254082;61;20411;-52
2021/08/16 04:08:07;0.00;0.00;0.62;0.00;0.00;0.62;4.28;2.90;;;25.10;39.40;;;;;;2253615;61;20421;-54
2021/08/16 04:10:52;0.00;0.00;0.62;0.00;0.00;0.62;4.87;2.90;;;25.00;39.30;;;;;;2254121;61;20594;-55
2021/08/16 04:13:38;0.00;0.00;0.62;0.00;0.00;0.62;7.63;3.10;;;25.00;39.30;;;;;;2256386;61;20383;-53
2021/08/16 04:16:23;0.00;0.00;0.62;0.00;0.00;0.62;3.60;2.83;;;25.00;39.30;;;;;;2253693;61;20368;-53
2021/08/16 04:19:08;0.00;0.00;0.62;0.00;0.00;0.62;5.40;3.20;;;24.90;39.10;;;;;;2253984;61;20403;-50
2021/08/16 04:21:53;0.00;0.00;0.62;0.00;0.00;0.62;6.37;2.97;;;24.90;39.10;;;;;;2253917;61;20468;-53
2021/08/16 04:24:38;0.00;0.00;0.62;0.00;0.00;0.62;3.20;2.83;;;24.80;39.10;;;;;;2254024;61;20359;-51
2021/08/16 04:27:23;0.00;0.00;0.62;0.00;0.00;0.62;5.67;3.30;;;24.80;39.10;;;;;;2254059;61;20367;-54
2021/08/16 04:30:12;0.00;0.00;0.62;0.00;0.00;0.62;4.30;3.77;;;24.80;39.20;;;;;;2253544;61;20480;-52
2021/08/16 04:32:58;0.00;0.00;0.62;0.00;0.00;0.62;6.50;3.73;;;24.70;39.20;;;;;;2254051;61;20388;-52
2021/08/16 04:35:43;0.00;0.00;0.62;0.00;0.00;0.62;4.43;3.10;;;24.60;39.10;;;;;;2254008;61;20398;-56
2021/08/16 04:38:28;0.00;0.00;0.62;0.00;0.00;0.62;9.33;3.93;;;24.60;39.20;;;;;;2253515;61;20395;-53
2021/08/16 04:41:12;0.00;0.00;0.62;0.00;0.00;0.62;5.00;4.03;;;24.60;39.40;;;;;;2253984;61;20775;-54
2021/08/16 04:43:57;0.00;0.00;0.62;0.00;0.00;0.62;4.50;3.87;;;24.50;39.40;;;;;;2254093;61;20424;-51
2021/08/16 04:46:43;0.00;0.00;0.62;0.00;0.00;0.62;5.10;3.57;;;24.50;39.40;;;;;;2254016;61;20651;-53
2021/08/16 04:49:27;0.00;0.00;0.62;0.00;0.00;0.62;5.67;4.13;;;24.40;39.30;;;;;;2253884;61;20471;-53
2021/08/16 04:52:12;0.00;0.00;0.62;0.00;0.00;0.62;5.83;3.47;;;24.40;39.40;;;;;;2253584;61;20379;-54
2021/08/16 04:54:57;0.00;0.00;0.62;0.00;0.00;0.62;6.63;4.80;;;24.30;39.50;;;;;;2253996;61;20363;-50
2021/08/16 04:57:41;0.00;0.00;0.62;0.00;0.00;0.62;4.37;3.47;;;24.30;39.70;;;;;;2253966;61;20423;-54
2021/08/16 05:00:26;0.00;0.00;0.62;0.00;0.00;0.62;5.13;3.67;;;24.20;39.60;;;;;;2253489;61;20411;-48
2021/08/16 05:03:12;0.00;0.00;0.62;0.00;0.00;0.62;4.33;2.77;;;24.20;39.60;;;;;;2253872;61;20422;-54
2021/08/16 05:06:05;0.00;0.00;0.62;0.00;0.00;0.62;3.67;3.30;;;24.20;39.70;;;;;;2253970;61;20414;-50
2021/08/16 05:08:49;0.00;0.00;0.62;0.00;0.00;0.62;4.63;3.30;;;24.20;39.80;;;;;;2252921;61;20659;-54
2021/08/16 05:11:35;0.00;0.00;0.62;0.00;0.00;0.62;3.63;3.00;;;24.30;39.90;;;;;;2253530;61;20623;-53
2021/08/16 05:14:20;0.00;0.00;0.62;0.00;0.00;0.62;5.77;4.13;;;24.30;40.00;;;;;;2252770;61;20435;-52
2021/08/16 05:17:05;0.00;0.00;0.62;0.00;0.00;0.62;3.40;3.03;;;24.30;39.90;;;;;;2253397;61;20368;-55
2021/08/16 05:19:51;0.00;0.00;0.62;0.00;0.00;0.62;4.67;3.63;;;24.40;40.00;;;;;;2253455;61;20724;-55
2021/08/16 05:22:38;0.00;0.00;0.62;0.00;0.00;0.62;4.70;3.07;;;24.40;39.90;;;;;;2253217;61;20430;-53
2021/08/16 05:25:23;0.00;0.00;0.62;0.00;0.00;0.62;6.07;3.43;;;24.40;39.80;;;;;;2253364;61;20395;-55
2021/08/16 05:28:07;0.00;0.00;0.62;0.00;0.00;0.62;6.77;3.70;;;24.50;39.90;;;;;;2253543;61;20384;-52
2021/08/16 05:30:52;0.00;0.00;0.62;0.00;0.00;0.62;9.00;2.90;;;24.50;39.80;;;;;;2253125;61;20399;-57
2021/08/16 05:33:37;0.00;0.00;0.62;0.00;0.00;0.62;6.17;3.60;;;24.60;39.80;;;;;;2253282;61;20391;-54
2021/08/16 05:36:23;0.00;0.00;0.62;0.00;0.00;0.62;5.00;3.60;;;24.60;39.80;;;;;;2251989;61;20635;-57
2021/08/16 05:39:08;0.00;0.00;0.62;0.00;0.00;0.62;8.80;4.97;;;24.60;39.50;;;;;;2252934;61;20379;-55
2021/08/16 05:41:53;0.00;0.00;0.62;0.00;0.00;0.62;6.10;5.00;;;24.60;39.50;;;;;;2253588;61;20652;-53
2021/08/16 05:44:38;0.00;0.00;0.62;0.00;0.00;0.62;9.03;4.17;;;24.60;39.50;;;;;;2253191;61;20433;-54
2021/08/16 05:47:22;0.00;0.00;0.62;0.00;0.00;0.62;9.37;4.60;;;24.60;39.50;;;;;;2253337;61;20368;-54
2021/08/16 05:50:08;0.00;0.00;0.62;0.00;0.00;0.62;4.20;3.30;;;24.60;39.50;;;;;;2253393;61;20368;-55
2021/08/16 05:52:55;0.00;0.00;0.62;0.00;0.00;0.62;5.33;4.53;;;24.60;39.50;;;;;;2252524;61;20395;-51
2021/08/16 05:55:39;0.00;0.00;0.62;0.00;0.00;0.62;6.33;3.90;;;24.60;39.50;;;;;;2253538;61;20363;-54
2021/08/16 05:58:24;0.00;0.00;0.62;0.00;0.00;0.62;4.70;3.93;;;24.50;39.40;;;;;;2252801;61;20479;-53
2021/08/16 06:01:09;0.00;0.00;0.62;0.00;0.00;0.62;7.27;4.30;;;24.50;39.40;;;;;;2252975;61;20363;-54
2021/08/16 06:03:53;0.00;0.00;0.62;0.00;0.00;0.62;7.17;4.00;;;24.50;39.40;;;;;;2253232;61;20384;-54
2021/08/16 06:06:38;0.00;0.00;0.62;0.00;0.00;0.62;5.00;4.50;;;24.50;39.40;;;;;;2253035;61;20363;-51
2021/08/16 06:09:24;0.00;0.00;0.62;0.00;0.00;0.62;5.80;4.00;;;24.50;39.50;;;;;;2253176;61;20480;-53
2021/08/16 06:12:09;0.00;0.00;0.62;0.00;0.00;0.62;9.00;5.50;;;24.50;39.60;;;;;;2253372;61;20500;-51
2021/08/16 06:14:53;0.00;0.00;0.62;0.00;0.00;0.62;7.90;5.87;;;24.40;39.70;;;;;;2253233;61;20841;-49
2021/08/16 06:17:40;0.00;0.00;0.62;0.00;0.00;0.62;7.43;6.60;;;24.50;39.90;;;;;;2253469;61;20767;-52
2021/08/16 06:20:24;0.00;0.00;0.62;0.00;0.00;0.62;10.17;6.23;;;24.40;39.90;;;;;;2253306;61;20704;-54
2021/08/16 06:23:09;0.00;0.00;0.62;0.00;0.00;0.62;9.67;6.30;;;24.40;40.00;;;;;;2253164;61;20376;-52
2021/08/16 06:25:55;0.00;0.00;0.62;0.00;0.00;0.62;10.37;6.90;;;24.40;39.90;;;;;;2253443;61;20384;-53
2021/08/16 06:28:40;0.00;0.00;0.62;0.00;0.00;0.62;7.80;6.63;;;24.40;40.00;;;;;;2252927;61;20367;-51
2021/08/16 06:31:24;0.00;0.00;0.62;0.00;0.00;0.62;7.50;6.73;;;24.40;40.00;;;;;;2253245;61;20355;-54
2021/08/16 06:34:11;0.00;0.00;0.62;0.00;0.00;0.62;7.07;6.43;;;24.40;40.00;;;;;;2254173;61;20407;-51
2021/08/16 06:36:56;0.00;0.00;0.62;0.00;0.00;0.62;6.27;5.60;;;24.40;40.00;;;;;;2253809;61;20414;-51
2021/08/16 06:39:40;0.00;0.00;0.62;0.00;0.00;0.62;9.70;7.60;;;24.40;40.00;;;;;;2253932;61;20364;-53
2021/08/16 06:42:26;0.00;0.00;0.62;0.00;0.00;0.62;11.70;7.60;;;24.30;39.90;;;;;;2254151;61;20379;-51
2021/08/16 06:45:11;0.00;0.00;0.62;0.00;0.00;0.62;8.63;7.50;;;24.30;39.90;;;;;;2253874;61;20480;-52
2021/08/16 06:47:56;0.00;0.00;0.62;0.00;0.00;0.62;8.33;7.07;;;24.30;39.90;;;;;;2254036;61;20395;-53
2021/08/16 06:50:41;0.00;0.00;0.62;0.00;0.00;0.62;10.30;7.93;;;24.30;39.90;;;;;;2253668;61;20363;-51
2021/08/16 06:53:25;0.00;0.00;0.62;0.00;0.00;0.62;10.80;7.63;;;24.30;39.80;;;;;;2253718;61;20399;-49
2021/08/16 06:56:10;0.00;0.00;0.62;0.00;0.00;0.62;8.43;7.57;;;24.30;39.90;;;;;;2254095;61;20398;-51
2021/08/16 06:58:56;0.00;0.00;0.62;0.00;0.00;0.62;7.80;6.90;;;24.30;39.90;;;;;;2253663;61;20364;-51
2021/08/16 07:01:43;0.00;0.00;0.62;0.00;0.00;0.62;9.30;7.70;;;24.20;39.80;;;;;;2253853;61;20387;-55
2021/08/16 07:04:28;0.00;0.00;0.62;0.00;0.00;0.62;7.20;6.50;;;24.20;39.90;;;;;;2254026;61;20376;-54
2021/08/16 07:07:13;0.00;0.00;0.62;0.00;0.00;0.62;10.07;7.10;;;24.20;40.00;;;;;;2253819;61;20430;-54
2021/08/16 07:09:59;0.00;0.00;0.62;0.00;0.00;0.62;9.93;7.67;;;24.20;40.00;;;;;;2253932;61;20436;-52
2021/08/16 07:12:44;0.00;0.00;0.62;0.00;0.00;0.62;11.50;8.23;;;24.20;40.00;;;;;;2253607;61;20447;-52
2021/08/16 07:15:30;0.00;0.00;0.62;0.00;0.00;0.62;8.20;7.40;;;24.20;40.00;;;;;;2253751;61;20514;-55
2021/08/16 07:18:16;0.00;0.00;0.62;0.00;0.00;0.62;11.47;7.53;;;24.20;40.00;;;;;;2254097;61;20368;-51
2021/08/16 07:21:01;0.00;0.00;0.62;0.00;0.00;0.62;8.43;7.33;;;24.20;40.00;;;;;;2253633;61;20429;-53
2021/08/16 07:23:46;0.00;0.00;0.62;0.00;0.00;0.62;10.47;7.47;;;24.10;39.90;;;;;;2253740;61;20359;-52
2021/08/16 07:26:31;0.00;0.00;0.62;0.00;0.00;0.62;9.90;6.77;;;24.10;39.90;;;;;;2254037;61;20427;-56
2021/08/16 07:29:16;0.00;0.00;0.62;0.00;0.00;0.62;13.30;7.83;;;24.10;39.90;;;;;;2253275;61;20436;-51
2021/08/16 07:32:03;0.00;0.00;0.62;0.00;0.00;0.62;11.63;7.60;;;24.10;39.80;;;;;;2254031;61;20387;-52
2021/08/16 07:34:48;0.00;0.00;0.62;0.00;0.00;0.62;11.67;7.33;;;24.10;39.80;;;;;;2253577;61;20460;-54
2021/08/16 07:37:32;0.00;0.00;0.62;0.00;0.00;0.62;9.03;8.03;;;24.10;39.70;;;;;;2253726;61;20359;-51
2021/08/16 07:40:19;0.00;0.00;0.62;0.00;0.00;0.62;9.27;6.97;;;24.10;39.70;;;;;;2253957;61;20403;-50
2021/08/16 07:43:04;0.00;0.00;0.62;0.00;0.00;0.62;7.87;7.10;;;24.10;39.80;;;;;;2253452;61;20375;-54
2021/08/16 07:45:50;0.00;0.00;0.62;0.00;0.00;0.62;10.63;7.17;;;24.10;39.80;;;;;;2253846;61;20484;-52
2021/08/16 07:48:36;0.00;0.00;0.62;0.00;0.00;0.62;12.07;7.10;;;24.10;39.80;;;;;;2253811;61;20364;-55
2021/08/16 07:51:21;0.00;0.00;0.62;0.00;0.00;0.62;9.27;6.83;;;24.10;39.80;;;;;;2253333;61;20579;-53
2021/08/16 07:54:06;0.00;0.00;0.62;0.00;0.00;0.62;8.03;6.83;;;24.10;39.80;;;;;;2253865;61;20391;-51
2021/08/16 07:56:51;0.00;0.00;0.62;0.00;0.00;0.62;9.20;6.97;;;24.10;39.80;;;;;;2253628;61;20394;-52
2021/08/16 07:59:36;0.00;0.00;0.62;0.00;0.00;0.62;11.63;7.27;;;24.10;39.90;;;;;;2253522;61;20644;-52
2021/08/16 08:02:20;0.00;0.00;0.62;0.00;0.00;0.62;11.07;7.80;;;24.00;39.80;;;;;;2253967;61;20383;-52
2021/08/16 08:05:09;0.00;0.00;0.62;0.00;0.00;0.62;9.20;7.00;;;24.10;39.90;;;;;;2253426;61;20578;-53
2021/08/16 08:07:54;0.00;0.00;0.62;0.00;0.00;0.62;9.57;7.30;;;24.10;39.90;;;;;;2253685;61;20403;-53
2021/08/16 08:10:39;0.00;0.00;0.62;0.00;0.00;0.62;11.23;8.07;;;24.10;40.00;;;;;;2253762;61;20391;-54
2021/08/16 08:13:23;0.00;0.00;0.62;0.00;0.00;0.62;12.20;8.53;;;24.10;40.00;;;;;;2253481;61;20484;-54
2021/08/16 08:16:08;0.00;0.00;0.62;0.00;0.00;0.62;13.17;9.07;;;24.10;40.20;;;;;;2253865;61;20659;-56
2021/08/16 08:18:52;0.00;0.00;0.62;0.00;0.00;0.62;10.40;9.03;;;24.10;40.40;;;;;;2253546;61;20363;-53
2021/08/16 08:21:38;0.00;0.00;0.62;0.00;0.00;0.62;10.17;9.13;;;24.10;40.40;;;;;;2253538;61;20434;-50
2021/08/16 08:24:23;0.00;0.00;0.62;0.00;0.00;0.62;13.30;9.80;;;24.10;40.30;;;;;;2252836;61;20364;-56
2021/08/16 08:27:07;0.00;0.00;0.62;0.00;0.00;0.62;10.67;9.67;;;24.10;40.10;;;;;;2253349;61;20580;-52
2021/08/16 08:29:52;0.00;0.00;0.62;0.00;0.00;0.62;10.27;9.27;;;24.10;40.10;;;;;;2253402;61;20526;-56
2021/08/16 08:32:45;0.00;0.00;0.62;0.00;0.00;0.62;13.20;8.90;;;24.10;40.10;;;;;;2253695;61;20423;-53
2021/08/16 08:35:30;0.00;0.00;0.62;0.00;0.00;0.62;10.53;9.23;;;24.10;40.00;;;;;;2253182;61;20739;-55
2021/08/16 08:38:17;0.00;0.00;0.62;0.00;0.00;0.62;10.77;9.60;;;24.10;39.90;;;;;;2254131;61;20364;-55
2021/08/16 08:41:05;0.00;0.00;0.62;0.00;0.00;0.62;13.93;9.67;;;24.10;40.00;;;;;;2253755;61;20707;-57
2021/08/16 08:43:51;0.00;0.00;0.62;0.00;0.00;0.62;11.23;9.20;;;24.10;40.00;;;;;;2253888;61;20440;-56
2021/08/16 08:46:37;0.00;0.00;0.62;0.00;0.00;0.62;11.67;9.90;;;24.10;40.00;;;;;;2254009;61;20363;-60
2021/08/16 08:49:22;0.00;0.00;0.62;0.00;0.00;0.62;11.83;9.70;;;24.10;40.00;;;;;;2253564;61;20360;-58
2021/08/16 08:52:08;0.00;0.00;0.62;0.00;0.00;0.62;13.33;10.53;;;24.10;39.90;;;;;;2253839;61;20606;-51
2021/08/16 08:54:56;0.00;0.00;0.62;0.00;0.00;0.62;11.43;10.33;;;24.10;39.80;;;;;;2253627;61;20427;-53
2021/08/16 08:57:41;0.00;0.00;0.62;0.00;0.00;0.62;10.17;9.10;;;24.20;39.80;;;;;;2253745;61;20403;-53
2021/08/16 09:00:26;0.00;0.00;0.62;0.00;0.00;0.62;11.60;10.40;;;24.20;39.70;;;;;;2253996;61;20403;-56
2021/08/16 09:03:10;0.00;0.00;0.62;0.00;0.00;0.62;11.10;9.90;;;24.20;39.80;;;;;;2253682;61;20431;-54
2021/08/16 09:05:58;0.00;0.00;0.62;0.00;0.00;0.62;10.63;9.63;;;24.20;39.90;;;;;;2253871;61;20364;-55
2021/08/16 09:08:44;0.00;0.00;0.62;0.00;0.00;0.62;11.87;10.57;;;24.20;39.90;;;;;;2253802;61;20363;-57
2021/08/16 09:11:30;0.00;0.00;0.62;0.00;0.00;0.62;10.53;9.53;;;24.30;40.00;;;;;;2253552;61;20363;-60
2021/08/16 09:14:15;0.00;0.00;0.62;0.00;0.00;0.62;10.77;9.70;;;24.20;39.70;;;;;;2253684;61;20387;-55
2021/08/16 09:17:01;0.00;0.00;0.62;0.00;0.00;0.62;10.33;9.17;;;24.20;39.70;;;;;;2253966;61;20382;-57
2021/08/16 09:19:45;0.00;0.00;0.62;0.00;0.00;0.62;14.37;10.70;;;24.30;39.80;;;;;;2253567;61;20577;-57
2021/08/16 09:22:34;0.00;0.00;0.62;0.00;0.00;0.62;11.50;10.40;;;24.30;39.70;;;;;;2253830;61;20443;-51
2021/08/16 09:25:18;0.00;0.00;0.62;0.00;0.00;0.62;10.20;9.30;;;24.30;39.70;;;;;;2253872;61;20623;-55
2021/08/16 09:28:06;0.00;0.00;0.62;0.00;0.00;0.62;9.70;8.27;;;24.30;39.60;;;;;;2253747;61;20734;-53
2021/08/16 09:30:50;0.00;0.00;0.62;0.00;0.00;0.62;9.93;8.83;;;24.30;39.70;;;;;;2253812;61;20791;-55
2021/08/16 09:33:35;0.00;0.00;0.62;0.00;0.00;0.62;9.20;8.27;;;24.30;39.60;;;;;;2253520;61;20467;-56
2021/08/16 09:36:20;0.00;0.00;0.62;0.00;0.00;0.62;8.87;7.97;;;24.40;40.40;;;;;;2253708;61;20391;-57
2021/08/16 09:39:16;0.00;0.00;0.62;0.00;0.00;0.62;8.53;7.70;;;24.40;39.70;;;;;;2253833;61;20359;-52
2021/08/16 09:42:04;0.00;0.00;0.62;0.00;0.00;0.62;9.60;7.40;;;24.50;39.80;;;;;;2253587;61;20600;-51
2021/08/16 09:44:50;0.00;0.00;0.62;0.00;0.00;0.62;8.10;7.40;;;24.50;39.80;;;;;;2253781;61;20619;-55
2021/08/16 09:47:40;0.00;0.00;0.62;0.00;0.00;0.62;12.17;7.83;;;24.60;39.80;;;;;;2253743;61;20615;-57
2021/08/16 09:50:39;0.00;0.00;0.62;0.00;0.00;0.62;8.87;7.97;;;24.60;39.70;;;;;;2253574;61;20363;-51
2021/08/16 09:53:26;0.00;0.00;0.62;0.00;0.00;0.62;8.80;7.10;;;24.60;39.60;;;;;;2253770;61;20428;-56
2021/08/16 09:56:10;0.00;0.00;0.62;0.00;0.00;0.62;7.70;7.00;;;24.70;39.70;;;;;;2253591;61;20375;-52
2021/08/16 09:58:55;0.00;0.00;0.62;0.00;0.00;0.62;7.47;6.77;;;24.70;39.60;;;;;;2253463;61;20388;-56
2021/08/16 10:01:41;0.00;0.00;0.62;0.00;0.00;0.62;7.37;6.67;;;24.80;39.70;;;;;;2253892;61;20383;-56
2021/08/16 10:04:27;0.00;0.00;0.62;0.00;0.00;0.62;7.70;6.27;;;24.80;39.70;;;;;;2253483;61;20383;-49
2021/08/16 10:07:13;0.00;0.00;0.62;0.00;0.00;0.62;6.90;6.13;;;24.90;39.80;;;;;;2254365;61;20355;-57
2021/08/16 10:10:02;0.00;0.00;0.62;0.00;0.00;0.62;6.70;6.10;;;24.90;39.80;;;;;;2253945;61;20375;-56
2021/08/16 10:12:48;0.00;0.00;0.62;0.00;0.00;0.62;6.53;5.83;;;24.90;39.80;;;;;;2253655;61;20391;-53
2021/08/16 10:15:38;0.00;0.00;0.62;0.00;0.00;0.62;6.70;5.70;;;25.00;39.90;;;;;;2254682;61;20815;-54
2021/08/16 10:18:30;0.00;0.00;0.62;0.00;0.00;0.62;11.10;5.90;;;25.00;39.90;;;;;;2254132;61;20356;-56
2021/08/16 10:21:18;0.00;0.00;0.62;0.00;0.00;0.62;5.77;5.20;;;25.10;39.90;;;;;;2253836;61;20471;-50
2021/08/16 10:24:15;0.00;0.00;0.62;0.00;0.00;0.62;6.70;5.30;;;25.10;39.90;;;;;;2254434;61;20387;-50
2021/08/16 10:27:05;0.00;0.00;0.62;0.00;0.00;0.62;7.57;6.00;;;25.20;40.00;;;;;;2253980;61;20578;-55
2021/08/16 10:29:50;0.00;0.00;0.62;0.00;0.00;0.62;7.13;5.87;;;25.20;39.80;;;;;;2254384;61;20442;-53
2021/08/16 10:32:35;0.00;0.00;0.62;0.00;0.00;0.62;5.83;5.30;;;25.20;39.70;;;;;;2253919;61;20760;-54
2021/08/16 10:35:21;0.00;0.00;0.62;0.00;0.00;0.62;5.70;5.10;;;25.30;39.70;;;;;;2253720;61;20764;-56
2021/08/16 10:38:08;0.00;0.00;0.62;0.00;0.00;0.62;5.17;4.77;;;25.30;39.60;;;;;;2254407;61;20367;-54
2021/08/16 10:40:57;0.00;0.00;0.62;0.00;0.00;0.62;5.80;5.30;;;25.40;39.60;;;;;;2254001;61;20363;-52
2021/08/16 10:43:42;0.00;0.00;0.62;0.00;0.00;0.62;10.13;5.07;;;25.40;39.50;;;;;;2253865;61;20424;-54
2021/08/16 10:46:26;0.00;0.00;0.62;0.00;0.00;0.62;6.37;4.97;;;25.40;39.50;;;;;;2254283;61;20360;-52
2021/08/16 10:49:12;0.00;0.00;0.62;0.00;0.00;0.62;4.83;4.30;;;25.50;39.50;;;;;;2253847;61;20480;-52
2021/08/16 10:51:59;0.00;0.00;0.62;0.00;0.00;0.62;5.13;4.67;;;25.50;39.50;;;;;;2254399;61;20422;-51